sensor_id;sensor_type;location;lat;lon;timestamp;P1;durP1;ratioP1;P2;durP2;ratioP2
23658;SDS011;12006;42.666;23.326;2023-04-12T00:02:12;8.37;;;5.57;;
23658;SDS011;12006;42.666;23.326;2023-04-12T00:04:38;9.23;;;6.30;;
23658;SDS011;12006;42.666;23.326;2023-04-12T00:07:04;8.73;;;6.33;;
23658;SDS011;12006;42.666;23.326;2023-04-12T00:09:30;7.67;;;5.93;;
23658;SDS011;12006;42.666;23.326;2023-04-12T00:11:57;9.47;;;6.73;;
23658;SDS011;12006;42.666;23.326;2023-04-12T00:14:23;8.47;;;6.87;;
23658;SDS011;12006;42.666;23.326;2023-04-12T00:16:51;9.97;;;7.80;;
23658;SDS011;12006;42.666;23.326;2023-04-12T00:19:16;7.83;;;6.30;;
23658;SDS011;12006;42.666;23.326;2023-04-12T00:21:42;8.50;;;6.33;;
23658;SDS011;12006;42.666;23.326;2023-04-12T00:24:08;8.87;;;6.43;;
23658;SDS011;12006;42.666;23.326;2023-04-12T00:26:34;6.53;;;5.77;;
23658;SDS011;12006;42.666;23.326;2023-04-12T00:29:00;10.17;;;6.43;;
23658;SDS011;12006;42.666;23.326;2023-04-12T00:31:25;11.03;;;8.20;;
23658;SDS011;12006;42.666;23.326;2023-04-12T00:33:51;9.80;;;7.63;;
23658;SDS011;12006;42.666;23.326;2023-04-12T00:36:17;9.67;;;7.23;;
23658;SDS011;12006;42.666;23.326;2023-04-12T00:38:43;5.57;;;5.00;;
23658;SDS011;12006;42.666;23.326;2023-04-12T00:41:10;10.50;;;8.13;;
23658;SDS011;12006;42.666;23.326;2023-04-12T00:43:36;9.63;;;7.43;;
23658;SDS011;12006;42.666;23.326;2023-04-12T00:46:03;10.27;;;7.50;;
23658;SDS011;12006;42.666;23.326;2023-04-12T00:48:29;6.30;;;4.63;;
23658;SDS011;12006;42.666;23.326;2023-04-12T00:50:55;9.87;;;6.23;;
23658;SDS011;12006;42.666;23.326;2023-04-12T00:53:21;9.00;;;7.07;;
23658;SDS011;12006;42.666;23.326;2023-04-12T00:55:48;12.13;;;8.37;;
23658;SDS011;12006;42.666;23.326;2023-04-12T00:58:15;9.83;;;7.80;;
23658;SDS011;12006;42.666;23.326;2023-04-12T01:00:41;9.63;;;5.93;;
23658;SDS011;12006;42.666;23.326;2023-04-12T01:03:15;10.33;;;9.20;;
23658;SDS011;12006;42.666;23.326;2023-04-12T01:05:49;8.80;;;6.23;;
23658;SDS011;12006;42.666;23.326;2023-04-12T01:08:31;9.33;;;7.93;;
23658;SDS011;12006;42.666;23.326;2023-04-12T01:11:08;9.43;;;7.53;;
23658;SDS011;12006;42.666;23.326;2023-04-12T01:13:54;7.37;;;6.43;;
23658;SDS011;12006;42.666;23.326;2023-04-12T01:16:29;7.27;;;4.87;;
23658;SDS011;12006;42.666;23.326;2023-04-12T01:19:03;9.30;;;7.07;;
23658;SDS011;12006;42.666;23.326;2023-04-12T01:21:44;10.73;;;6.70;;
23658;SDS011;12006;42.666;23.326;2023-04-12T01:24:25;12.07;;;8.00;;
23658;SDS011;12006;42.666;23.326;2023-04-12T01:26:53;9.13;;;7.40;;
23658;SDS011;12006;42.666;23.326;2023-04-12T01:29:21;11.73;;;9.43;;
23658;SDS011;12006;42.666;23.326;2023-04-12T01:31:51;11.30;;;9.53;;
23658;SDS011;12006;42.666;23.326;2023-04-12T01:34:19;10.60;;;7.93;;
23658;SDS011;12006;42.666;23.326;2023-04-12T01:36:47;10.67;;;7.30;;
23658;SDS011;12006;42.666;23.326;2023-04-12T01:39:13;10.80;;;8.27;;
23658;SDS011;12006;42.666;23.326;2023-04-12T01:41:39;9.13;;;6.87;;
23658;SDS011;12006;42.666;23.326;2023-04-12T01:44:09;10.87;;;8.17;;
23658;SDS011;12006;42.666;23.326;2023-04-12T01:46:36;9.73;;;5.37;;
23658;SDS011;12006;42.666;23.326;2023-04-12T01:49:02;10.80;;;8.77;;
23658;SDS011;12006;42.666;23.326;2023-04-12T01:54:21;11.77;;;8.57;;
23658;SDS011;12006;42.666;23.326;2023-04-12T01:56:53;7.53;;;6.27;;
23658;SDS011;12006;42.666;23.326;2023-04-12T01:59:22;8.80;;;6.90;;
23658;SDS011;12006;42.666;23.326;2023-04-12T02:01:52;8.10;;;6.67;;
23658;SDS011;12006;42.666;23.326;2023-04-12T02:04:18;12.10;;;8.37;;
23658;SDS011;12006;42.666;23.326;2023-04-12T02:06:44;12.03;;;9.70;;
23658;SDS011;12006;42.666;23.326;2023-04-12T02:09:11;10.43;;;8.93;;
23658;SDS011;12006;42.666;23.326;2023-04-12T02:11:37;7.83;;;5.13;;
23658;SDS011;12006;42.666;23.326;2023-04-12T02:14:02;10.77;;;8.73;;
23658;SDS011;12006;42.666;23.326;2023-04-12T02:16:28;8.37;;;5.77;;
23658;SDS011;12006;42.666;23.326;2023-04-12T02:18:53;10.00;;;7.87;;
23658;SDS011;12006;42.666;23.326;2023-04-12T02:21:21;7.67;;;5.83;;
23658;SDS011;12006;42.666;23.326;2023-04-12T02:23:46;9.63;;;8.03;;
23658;SDS011;12006;42.666;23.326;2023-04-12T02:26:12;12.90;;;8.80;;
23658;SDS011;12006;42.666;23.326;2023-04-12T02:28:37;12.70;;;8.60;;
23658;SDS011;12006;42.666;23.326;2023-04-12T02:31:04;10.43;;;8.83;;
23658;SDS011;12006;42.666;23.326;2023-04-12T02:33:30;6.73;;;4.60;;
23658;SDS011;12006;42.666;23.326;2023-04-12T02:35:57;12.23;;;9.27;;
23658;SDS011;12006;42.666;23.326;2023-04-12T02:38:23;8.57;;;6.30;;
23658;SDS011;12006;42.666;23.326;2023-04-12T02:40:49;10.03;;;7.43;;
23658;SDS011;12006;42.666;23.326;2023-04-12T02:43:14;5.63;;;4.80;;
23658;SDS011;12006;42.666;23.326;2023-04-12T02:45:39;11.97;;;7.77;;
23658;SDS011;12006;42.666;23.326;2023-04-12T02:48:05;11.20;;;8.87;;
23658;SDS011;12006;42.666;23.326;2023-04-12T02:50:30;11.50;;;9.90;;
23658;SDS011;12006;42.666;23.326;2023-04-12T02:52:56;7.33;;;5.97;;
23658;SDS011;12006;42.666;23.326;2023-04-12T02:55:21;6.23;;;5.00;;
23658;SDS011;12006;42.666;23.326;2023-04-12T02:57:46;12.20;;;8.40;;
23658;SDS011;12006;42.666;23.326;2023-04-12T03:00:12;16.53;;;9.90;;
23658;SDS011;12006;42.666;23.326;2023-04-12T03:02:42;12.53;;;9.67;;
23658;SDS011;12006;42.666;23.326;2023-04-12T03:05:07;8.90;;;5.87;;
23658;SDS011;12006;42.666;23.326;2023-04-12T03:07:34;12.37;;;9.13;;
23658;SDS011;12006;42.666;23.326;2023-04-12T03:10:00;13.47;;;9.57;;
23658;SDS011;12006;42.666;23.326;2023-04-12T03:12:26;9.07;;;6.20;;
23658;SDS011;12006;42.666;23.326;2023-04-12T03:14:52;13.70;;;10.90;;
23658;SDS011;12006;42.666;23.326;2023-04-12T03:17:18;13.73;;;10.63;;
23658;SDS011;12006;42.666;23.326;2023-04-12T03:19:43;16.23;;;11.97;;
23658;SDS011;12006;42.666;23.326;2023-04-12T03:22:10;14.33;;;11.90;;
23658;SDS011;12006;42.666;23.326;2023-04-12T03:24:35;13.37;;;11.80;;
23658;SDS011;12006;42.666;23.326;2023-04-12T03:27:01;15.47;;;12.50;;
23658;SDS011;12006;42.666;23.326;2023-04-12T03:29:28;15.67;;;12.33;;
23658;SDS011;12006;42.666;23.326;2023-04-12T03:31:54;15.73;;;11.87;;
23658;SDS011;12006;42.666;23.326;2023-04-12T03:34:22;17.00;;;13.10;;
23658;SDS011;12006;42.666;23.326;2023-04-12T03:36:56;16.57;;;14.17;;
23658;SDS011;12006;42.666;23.326;2023-04-12T03:39:25;13.20;;;7.37;;
23658;SDS011;12006;42.666;23.326;2023-04-12T03:41:50;17.80;;;12.67;;
23658;SDS011;12006;42.666;23.326;2023-04-12T03:44:17;18.27;;;12.23;;
23658;SDS011;12006;42.666;23.326;2023-04-12T03:46:43;14.23;;;10.87;;
23658;SDS011;12006;42.666;23.326;2023-04-12T03:49:08;13.47;;;9.53;;
23658;SDS011;12006;42.666;23.326;2023-04-12T03:51:34;12.30;;;9.17;;
23658;SDS011;12006;42.666;23.326;2023-04-12T03:53:59;15.43;;;10.97;;
23658;SDS011;12006;42.666;23.326;2023-04-12T03:56:26;11.33;;;9.10;;
23658;SDS011;12006;42.666;23.326;2023-04-12T03:58:52;16.00;;;10.80;;
23658;SDS011;12006;42.666;23.326;2023-04-12T04:01:18;21.00;;;10.23;;
23658;SDS011;12006;42.666;23.326;2023-04-12T04:03:43;11.93;;;8.17;;
23658;SDS011;12006;42.666;23.326;2023-04-12T04:06:09;14.47;;;10.33;;
23658;SDS011;12006;42.666;23.326;2023-04-12T04:08:35;12.60;;;7.53;;
23658;SDS011;12006;42.666;23.326;2023-04-12T04:11:01;16.13;;;10.80;;
23658;SDS011;12006;42.666;23.326;2023-04-12T04:13:27;8.60;;;6.80;;
23658;SDS011;12006;42.666;23.326;2023-04-12T04:16:00;15.20;;;11.83;;
23658;SDS011;12006;42.666;23.326;2023-04-12T04:18:28;13.73;;;10.47;;
23658;SDS011;12006;42.666;23.326;2023-04-12T04:20:53;11.80;;;7.40;;
23658;SDS011;12006;42.666;23.326;2023-04-12T04:23:19;11.00;;;8.80;;
23658;SDS011;12006;42.666;23.326;2023-04-12T04:25:46;12.53;;;9.73;;
23658;SDS011;12006;42.666;23.326;2023-04-12T04:28:11;12.50;;;7.67;;
23658;SDS011;12006;42.666;23.326;2023-04-12T04:30:36;12.17;;;10.00;;
23658;SDS011;12006;42.666;23.326;2023-04-12T04:33:06;15.93;;;9.93;;
23658;SDS011;12006;42.666;23.326;2023-04-12T04:35:32;17.30;;;12.77;;
23658;SDS011;12006;42.666;23.326;2023-04-12T04:37:58;12.27;;;8.33;;
23658;SDS011;12006;42.666;23.326;2023-04-12T04:40:25;14.10;;;11.03;;
23658;SDS011;12006;42.666;23.326;2023-04-12T04:42:51;14.00;;;10.53;;
23658;SDS011;12006;42.666;23.326;2023-04-12T04:45:22;11.30;;;9.93;;
23658;SDS011;12006;42.666;23.326;2023-04-12T04:47:52;14.37;;;10.33;;
23658;SDS011;12006;42.666;23.326;2023-04-12T04:50:19;9.80;;;7.47;;
23658;SDS011;12006;42.666;23.326;2023-04-12T04:52:46;12.50;;;10.53;;
23658;SDS011;12006;42.666;23.326;2023-04-12T04:55:18;13.90;;;10.93;;
23658;SDS011;12006;42.666;23.326;2023-04-12T04:57:45;12.00;;;7.90;;
23658;SDS011;12006;42.666;23.326;2023-04-12T05:00:11;13.43;;;9.40;;
23658;SDS011;12006;42.666;23.326;2023-04-12T05:02:37;11.00;;;7.17;;
23658;SDS011;12006;42.666;23.326;2023-04-12T05:05:09;12.50;;;10.17;;
23658;SDS011;12006;42.666;23.326;2023-04-12T05:07:37;10.37;;;7.80;;
23658;SDS011;12006;42.666;23.326;2023-04-12T05:10:03;8.83;;;6.03;;
23658;SDS011;12006;42.666;23.326;2023-04-12T05:12:28;11.43;;;9.67;;
23658;SDS011;12006;42.666;23.326;2023-04-12T05:14:55;12.47;;;7.70;;
23658;SDS011;12006;42.666;23.326;2023-04-12T05:17:21;8.80;;;6.43;;
23658;SDS011;12006;42.666;23.326;2023-04-12T05:19:46;11.40;;;8.67;;
23658;SDS011;12006;42.666;23.326;2023-04-12T05:22:11;8.87;;;6.47;;
23658;SDS011;12006;42.666;23.326;2023-04-12T05:24:38;7.37;;;5.17;;
23658;SDS011;12006;42.666;23.326;2023-04-12T05:27:04;9.00;;;6.83;;
23658;SDS011;12006;42.666;23.326;2023-04-12T05:29:30;6.47;;;5.30;;
23658;SDS011;12006;42.666;23.326;2023-04-12T05:31:55;7.63;;;5.60;;
23658;SDS011;12006;42.666;23.326;2023-04-12T05:34:22;5.40;;;4.50;;
23658;SDS011;12006;42.666;23.326;2023-04-12T05:36:47;11.47;;;6.87;;
23658;SDS011;12006;42.666;23.326;2023-04-12T05:39:13;4.10;;;3.03;;
23658;SDS011;12006;42.666;23.326;2023-04-12T05:41:38;7.50;;;5.97;;
23658;SDS011;12006;42.666;23.326;2023-04-12T05:44:04;5.57;;;4.97;;
23658;SDS011;12006;42.666;23.326;2023-04-12T05:46:29;7.07;;;5.17;;
23658;SDS011;12006;42.666;23.326;2023-04-12T05:48:55;7.47;;;5.47;;
23658;SDS011;12006;42.666;23.326;2023-04-12T05:51:20;7.97;;;5.40;;
23658;SDS011;12006;42.666;23.326;2023-04-12T05:53:45;4.17;;;3.67;;
23658;SDS011;12006;42.666;23.326;2023-04-12T05:56:11;7.57;;;4.40;;
23658;SDS011;12006;42.666;23.326;2023-04-12T05:58:36;7.20;;;5.43;;
23658;SDS011;12006;42.666;23.326;2023-04-12T06:01:02;5.43;;;3.77;;
23658;SDS011;12006;42.666;23.326;2023-04-12T06:03:28;6.30;;;5.33;;
23658;SDS011;12006;42.666;23.326;2023-04-12T06:05:54;5.70;;;4.07;;
23658;SDS011;12006;42.666;23.326;2023-04-12T06:08:20;6.13;;;4.10;;
23658;SDS011;12006;42.666;23.326;2023-04-12T06:10:45;4.70;;;2.93;;
23658;SDS011;12006;42.666;23.326;2023-04-12T06:13:12;5.33;;;3.87;;
23658;SDS011;12006;42.666;23.326;2023-04-12T06:15:37;7.57;;;5.57;;
23658;SDS011;12006;42.666;23.326;2023-04-12T06:18:02;5.57;;;5.03;;
23658;SDS011;12006;42.666;23.326;2023-04-12T06:20:28;5.27;;;4.30;;
23658;SDS011;12006;42.666;23.326;2023-04-12T06:22:53;7.63;;;5.00;;
23658;SDS011;12006;42.666;23.326;2023-04-12T06:25:19;5.53;;;3.90;;
23658;SDS011;12006;42.666;23.326;2023-04-12T06:27:45;4.83;;;3.47;;
23658;SDS011;12006;42.666;23.326;2023-04-12T06:30:10;5.47;;;4.60;;
23658;SDS011;12006;42.666;23.326;2023-04-12T06:32:36;6.37;;;5.03;;
23658;SDS011;12006;42.666;23.326;2023-04-12T06:35:02;6.87;;;4.40;;
23658;SDS011;12006;42.666;23.326;2023-04-12T06:37:31;3.40;;;2.67;;
23658;SDS011;12006;42.666;23.326;2023-04-12T06:39:56;6.07;;;5.00;;
23658;SDS011;12006;42.666;23.326;2023-04-12T06:42:22;6.23;;;5.17;;
23658;SDS011;12006;42.666;23.326;2023-04-12T06:44:48;3.00;;;2.70;;
23658;SDS011;12006;42.666;23.326;2023-04-12T06:47:13;3.07;;;2.77;;
23658;SDS011;12006;42.666;23.326;2023-04-12T06:49:39;4.23;;;3.60;;
23658;SDS011;12006;42.666;23.326;2023-04-12T06:52:05;2.83;;;2.60;;
23658;SDS011;12006;42.666;23.326;2023-04-12T06:54:30;2.43;;;2.23;;
23658;SDS011;12006;42.666;23.326;2023-04-12T06:56:55;5.73;;;3.03;;
23658;SDS011;12006;42.666;23.326;2023-04-12T06:59:21;2.87;;;2.57;;
23658;SDS011;12006;42.666;23.326;2023-04-12T07:01:46;3.00;;;2.70;;
23658;SDS011;12006;42.666;23.326;2023-04-12T07:04:12;3.10;;;2.90;;
23658;SDS011;12006;42.666;23.326;2023-04-12T07:06:37;3.17;;;2.70;;
23658;SDS011;12006;42.666;23.326;2023-04-12T07:09:03;3.40;;;3.10;;
23658;SDS011;12006;42.666;23.326;2023-04-12T07:11:28;2.43;;;2.10;;
23658;SDS011;12006;42.666;23.326;2023-04-12T07:13:55;5.03;;;2.97;;
23658;SDS011;12006;42.666;23.326;2023-04-12T07:16:23;2.73;;;2.13;;
23658;SDS011;12006;42.666;23.326;2023-04-12T07:18:49;3.40;;;3.03;;
23658;SDS011;12006;42.666;23.326;2023-04-12T07:21:14;3.33;;;3.03;;
23658;SDS011;12006;42.666;23.326;2023-04-12T07:23:41;3.37;;;2.77;;
23658;SDS011;12006;42.666;23.326;2023-04-12T07:26:07;3.40;;;3.10;;
23658;SDS011;12006;42.666;23.326;2023-04-12T07:28:32;3.57;;;3.37;;
23658;SDS011;12006;42.666;23.326;2023-04-12T07:30:59;4.03;;;3.60;;
23658;SDS011;12006;42.666;23.326;2023-04-12T07:33:25;5.73;;;4.43;;
23658;SDS011;12006;42.666;23.326;2023-04-12T07:35:50;4.20;;;2.57;;
23658;SDS011;12006;42.666;23.326;2023-04-12T07:38:16;3.47;;;2.17;;
23658;SDS011;12006;42.666;23.326;2023-04-12T07:40:41;3.30;;;3.00;;
23658;SDS011;12006;42.666;23.326;2023-04-12T07:43:07;3.60;;;2.77;;
23658;SDS011;12006;42.666;23.326;2023-04-12T07:45:34;3.33;;;3.03;;
23658;SDS011;12006;42.666;23.326;2023-04-12T07:48:01;3.70;;;3.40;;
23658;SDS011;12006;42.666;23.326;2023-04-12T07:50:27;2.70;;;2.50;;
23658;SDS011;12006;42.666;23.326;2023-04-12T07:52:52;3.33;;;2.30;;
23658;SDS011;12006;42.666;23.326;2023-04-12T07:55:18;2.50;;;2.13;;
23658;SDS011;12006;42.666;23.326;2023-04-12T07:57:43;2.10;;;1.83;;
23658;SDS011;12006;42.666;23.326;2023-04-12T08:00:09;3.40;;;2.53;;
23658;SDS011;12006;42.666;23.326;2023-04-12T08:02:35;2.77;;;2.27;;
23658;SDS011;12006;42.666;23.326;2023-04-12T08:05:00;5.83;;;3.10;;
23658;SDS011;12006;42.666;23.326;2023-04-12T08:07:26;2.43;;;2.23;;
23658;SDS011;12006;42.666;23.326;2023-04-12T08:09:51;2.90;;;2.20;;
23658;SDS011;12006;42.666;23.326;2023-04-12T08:12:16;1.90;;;1.80;;
23658;SDS011;12006;42.666;23.326;2023-04-12T08:14:42;2.50;;;1.80;;
23658;SDS011;12006;42.666;23.326;2023-04-12T08:17:07;2.07;;;1.30;;
23658;SDS011;12006;42.666;23.326;2023-04-12T08:19:33;2.33;;;2.13;;
23658;SDS011;12006;42.666;23.326;2023-04-12T08:21:59;2.63;;;2.43;;
23658;SDS011;12006;42.666;23.326;2023-04-12T08:24:25;1.90;;;1.70;;
23658;SDS011;12006;42.666;23.326;2023-04-12T08:26:50;1.87;;;1.63;;
23658;SDS011;12006;42.666;23.326;2023-04-12T08:29:16;3.37;;;1.83;;
23658;SDS011;12006;42.666;23.326;2023-04-12T08:31:42;2.53;;;1.50;;
23658;SDS011;12006;42.666;23.326;2023-04-12T08:34:08;1.73;;;1.50;;
23658;SDS011;12006;42.666;23.326;2023-04-12T08:36:33;2.70;;;1.37;;
23658;SDS011;12006;42.666;23.326;2023-04-12T08:38:58;1.70;;;1.60;;
23658;SDS011;12006;42.666;23.326;2023-04-12T08:41:24;1.53;;;1.43;;
23658;SDS011;12006;42.666;23.326;2023-04-12T08:43:50;2.90;;;1.90;;
23658;SDS011;12006;42.666;23.326;2023-04-12T08:46:16;5.60;;;2.70;;
23658;SDS011;12006;42.666;23.326;2023-04-12T08:48:45;7.20;;;1.93;;
23658;SDS011;12006;42.666;23.326;2023-04-12T08:51:13;1.47;;;1.33;;
23658;SDS011;12006;42.666;23.326;2023-04-12T08:53:40;6.23;;;1.67;;
23658;SDS011;12006;42.666;23.326;2023-04-12T08:56:06;1.57;;;1.47;;
23658;SDS011;12006;42.666;23.326;2023-04-12T08:58:35;3.53;;;1.80;;
23658;SDS011;12006;42.666;23.326;2023-04-12T09:01:12;2.03;;;1.57;;
23658;SDS011;12006;42.666;23.326;2023-04-12T09:03:39;2.90;;;1.80;;
23658;SDS011;12006;42.666;23.326;2023-04-12T09:06:04;1.53;;;1.40;;
23658;SDS011;12006;42.666;23.326;2023-04-12T09:08:30;2.13;;;1.60;;
23658;SDS011;12006;42.666;23.326;2023-04-12T09:10:56;1.83;;;1.67;;
23658;SDS011;12006;42.666;23.326;2023-04-12T09:13:32;2.13;;;1.07;;
23658;SDS011;12006;42.666;23.326;2023-04-12T09:15:58;2.03;;;1.33;;
23658;SDS011;12006;42.666;23.326;2023-04-12T09:18:24;1.30;;;1.17;;
23658;SDS011;12006;42.666;23.326;2023-04-12T09:20:55;2.43;;;1.87;;
23658;SDS011;12006;42.666;23.326;2023-04-12T09:23:31;1.50;;;1.20;;
23658;SDS011;12006;42.666;23.326;2023-04-12T09:25:56;2.40;;;2.00;;
23658;SDS011;12006;42.666;23.326;2023-04-12T09:30:47;1.07;;;1.00;;
23658;SDS011;12006;42.666;23.326;2023-04-12T09:33:16;1.53;;;1.43;;
23658;SDS011;12006;42.666;23.326;2023-04-12T09:35:42;3.10;;;0.90;;
23658;SDS011;12006;42.666;23.326;2023-04-12T09:38:08;0.93;;;0.90;;
23658;SDS011;12006;42.666;23.326;2023-04-12T09:40:35;1.90;;;0.90;;
23658;SDS011;12006;42.666;23.326;2023-04-12T09:43:01;1.50;;;1.40;;
23658;SDS011;12006;42.666;23.326;2023-04-12T09:45:28;1.67;;;1.23;;
23658;SDS011;12006;42.666;23.326;2023-04-12T09:47:55;1.50;;;1.10;;
23658;SDS011;12006;42.666;23.326;2023-04-12T09:50:25;1.67;;;1.13;;
23658;SDS011;12006;42.666;23.326;2023-04-12T09:52:52;5.77;;;2.73;;
23658;SDS011;12006;42.666;23.326;2023-04-12T09:55:20;1.60;;;1.50;;
23658;SDS011;12006;42.666;23.326;2023-04-12T09:57:47;2.53;;;1.20;;
23658;SDS011;12006;42.666;23.326;2023-04-12T10:00:15;1.83;;;1.33;;
23658;SDS011;12006;42.666;23.326;2023-04-12T10:02:42;1.60;;;1.33;;
23658;SDS011;12006;42.666;23.326;2023-04-12T10:05:09;1.50;;;1.40;;
23658;SDS011;12006;42.666;23.326;2023-04-12T10:07:38;2.43;;;1.13;;
23658;SDS011;12006;42.666;23.326;2023-04-12T10:10:05;1.30;;;1.20;;
23658;SDS011;12006;42.666;23.326;2023-04-12T10:12:32;0.67;;;0.67;;
23658;SDS011;12006;42.666;23.326;2023-04-12T10:15:04;1.87;;;0.60;;
23658;SDS011;12006;42.666;23.326;2023-04-12T10:17:48;0.80;;;0.50;;
23658;SDS011;12006;42.666;23.326;2023-04-12T10:20:16;1.10;;;0.77;;
23658;SDS011;12006;42.666;23.326;2023-04-12T10:22:44;1.03;;;0.93;;
23658;SDS011;12006;42.666;23.326;2023-04-12T10:25:14;1.43;;;0.53;;
23658;SDS011;12006;42.666;23.326;2023-04-12T10:27:42;1.40;;;0.83;;
23658;SDS011;12006;42.666;23.326;2023-04-12T10:30:17;0.73;;;0.63;;
23658;SDS011;12006;42.666;23.326;2023-04-12T10:32:42;1.13;;;0.87;;
23658;SDS011;12006;42.666;23.326;2023-04-12T10:35:08;0.73;;;0.70;;
23658;SDS011;12006;42.666;23.326;2023-04-12T10:37:56;1.73;;;1.20;;
23658;SDS011;12006;42.666;23.326;2023-04-12T10:40:30;0.60;;;0.60;;
23658;SDS011;12006;42.666;23.326;2023-04-12T10:45:44;1.90;;;0.97;;
23658;SDS011;12006;42.666;23.326;2023-04-12T10:51:17;1.90;;;0.80;;
23658;SDS011;12006;42.666;23.326;2023-04-12T10:54:37;0.40;;;0.40;;
23658;SDS011;12006;42.666;23.326;2023-04-12T10:56:41;1.67;;;1.00;;
23658;SDS011;12006;42.666;23.326;2023-04-12T10:59:08;1.53;;;1.00;;
23658;SDS011;12006;42.666;23.326;2023-04-12T11:01:34;2.53;;;1.13;;
23658;SDS011;12006;42.666;23.326;2023-04-12T11:04:13;1.50;;;0.97;;
23658;SDS011;12006;42.666;23.326;2023-04-12T11:09:04;0.90;;;0.70;;
23658;SDS011;12006;42.666;23.326;2023-04-12T11:11:32;1.87;;;0.87;;
23658;SDS011;12006;42.666;23.326;2023-04-12T11:13:58;1.17;;;0.70;;
23658;SDS011;12006;42.666;23.326;2023-04-12T11:16:26;2.47;;;0.93;;
23658;SDS011;12006;42.666;23.326;2023-04-12T11:18:51;0.60;;;0.50;;
23658;SDS011;12006;42.666;23.326;2023-04-12T11:21:18;0.70;;;0.70;;
23658;SDS011;12006;42.666;23.326;2023-04-12T11:23:44;0.40;;;0.40;;
23658;SDS011;12006;42.666;23.326;2023-04-12T11:26:10;0.80;;;0.77;;
23658;SDS011;12006;42.666;23.326;2023-04-12T11:28:36;1.10;;;0.77;;
23658;SDS011;12006;42.666;23.326;2023-04-12T11:31:01;2.33;;;0.57;;
23658;SDS011;12006;42.666;23.326;2023-04-12T11:33:37;2.30;;;1.00;;
23658;SDS011;12006;42.666;23.326;2023-04-12T11:36:04;2.50;;;1.17;;
23658;SDS011;12006;42.666;23.326;2023-04-12T11:38:31;1.23;;;0.60;;
23658;SDS011;12006;42.666;23.326;2023-04-12T11:40:58;0.57;;;0.50;;
23658;SDS011;12006;42.666;23.326;2023-04-12T11:43:24;1.97;;;1.07;;
23658;SDS011;12006;42.666;23.326;2023-04-12T11:45:54;0.70;;;0.40;;
23658;SDS011;12006;42.666;23.326;2023-04-12T11:48:21;0.80;;;0.50;;
23658;SDS011;12006;42.666;23.326;2023-04-12T11:50:46;1.63;;;0.83;;
23658;SDS011;12006;42.666;23.326;2023-04-12T11:53:12;1.37;;;0.77;;
23658;SDS011;12006;42.666;23.326;2023-04-12T11:55:37;0.80;;;0.80;;
23658;SDS011;12006;42.666;23.326;2023-04-12T11:58:03;1.00;;;0.90;;
23658;SDS011;12006;42.666;23.326;2023-04-12T12:00:28;1.60;;;1.10;;
23658;SDS011;12006;42.666;23.326;2023-04-12T12:02:55;0.70;;;0.70;;
23658;SDS011;12006;42.666;23.326;2023-04-12T12:05:21;1.10;;;0.60;;
23658;SDS011;12006;42.666;23.326;2023-04-12T12:07:47;0.63;;;0.63;;
23658;SDS011;12006;42.666;23.326;2023-04-12T12:10:13;1.33;;;0.83;;
23658;SDS011;12006;42.666;23.326;2023-04-12T12:12:38;3.83;;;1.43;;
23658;SDS011;12006;42.666;23.326;2023-04-12T12:15:07;1.60;;;0.80;;
23658;SDS011;12006;42.666;23.326;2023-04-12T12:17:35;1.50;;;0.50;;
23658;SDS011;12006;42.666;23.326;2023-04-12T12:20:04;2.03;;;0.60;;
23658;SDS011;12006;42.666;23.326;2023-04-12T12:22:30;1.03;;;0.50;;
23658;SDS011;12006;42.666;23.326;2023-04-12T12:24:56;0.97;;;0.47;;
23658;SDS011;12006;42.666;23.326;2023-04-12T12:27:32;2.20;;;0.70;;
23658;SDS011;12006;42.666;23.326;2023-04-12T12:30:02;1.97;;;0.80;;
23658;SDS011;12006;42.666;23.326;2023-04-12T12:32:32;1.27;;;1.00;;
23658;SDS011;12006;42.666;23.326;2023-04-12T12:34:59;0.90;;;0.90;;
23658;SDS011;12006;42.666;23.326;2023-04-12T12:37:26;0.73;;;0.73;;
23658;SDS011;12006;42.666;23.326;2023-04-12T12:39:59;0.90;;;0.67;;
23658;SDS011;12006;42.666;23.326;2023-04-12T12:42:25;1.80;;;1.10;;
23658;SDS011;12006;42.666;23.326;2023-04-12T12:44:51;0.60;;;0.50;;
23658;SDS011;12006;42.666;23.326;2023-04-12T12:47:16;1.03;;;0.60;;
23658;SDS011;12006;42.666;23.326;2023-04-12T12:49:42;1.00;;;0.80;;
23658;SDS011;12006;42.666;23.326;2023-04-12T12:52:07;1.00;;;0.83;;
23658;SDS011;12006;42.666;23.326;2023-04-12T12:54:33;0.70;;;0.70;;
23658;SDS011;12006;42.666;23.326;2023-04-12T12:56:59;3.07;;;1.20;;
23658;SDS011;12006;42.666;23.326;2023-04-12T12:59:25;1.83;;;0.70;;
23658;SDS011;12006;42.666;23.326;2023-04-12T13:01:51;2.30;;;0.70;;
23658;SDS011;12006;42.666;23.326;2023-04-12T13:04:16;2.70;;;0.80;;
23658;SDS011;12006;42.666;23.326;2023-04-12T13:06:41;1.40;;;1.00;;
23658;SDS011;12006;42.666;23.326;2023-04-12T13:09:07;5.60;;;1.00;;
23658;SDS011;12006;42.666;23.326;2023-04-12T13:11:32;1.17;;;0.80;;
23658;SDS011;12006;42.666;23.326;2023-04-12T13:13:58;1.03;;;0.60;;
23658;SDS011;12006;42.666;23.326;2023-04-12T13:16:23;1.23;;;0.60;;
23658;SDS011;12006;42.666;23.326;2023-04-12T13:18:49;0.50;;;0.50;;
23658;SDS011;12006;42.666;23.326;2023-04-12T13:21:14;1.30;;;1.07;;
23658;SDS011;12006;42.666;23.326;2023-04-12T13:23:40;1.60;;;0.80;;
23658;SDS011;12006;42.666;23.326;2023-04-12T13:26:05;1.47;;;0.80;;
23658;SDS011;12006;42.666;23.326;2023-04-12T13:28:31;1.10;;;0.77;;
23658;SDS011;12006;42.666;23.326;2023-04-12T13:30:56;0.73;;;0.60;;
23658;SDS011;12006;42.666;23.326;2023-04-12T13:33:22;2.33;;;1.63;;
23658;SDS011;12006;42.666;23.326;2023-04-12T13:35:47;3.40;;;1.40;;
23658;SDS011;12006;42.666;23.326;2023-04-12T13:38:12;1.90;;;1.17;;
23658;SDS011;12006;42.666;23.326;2023-04-12T13:40:38;2.07;;;1.10;;
23658;SDS011;12006;42.666;23.326;2023-04-12T13:43:03;0.77;;;0.67;;
23658;SDS011;12006;42.666;23.326;2023-04-12T13:45:31;0.50;;;0.50;;
23658;SDS011;12006;42.666;23.326;2023-04-12T13:47:56;0.93;;;0.80;;
23658;SDS011;12006;42.666;23.326;2023-04-12T13:50:21;1.03;;;0.90;;
23658;SDS011;12006;42.666;23.326;2023-04-12T13:52:47;1.37;;;0.70;;
23658;SDS011;12006;42.666;23.326;2023-04-12T13:55:12;1.00;;;0.50;;
23658;SDS011;12006;42.666;23.326;2023-04-12T13:57:38;1.53;;;0.73;;
23658;SDS011;12006;42.666;23.326;2023-04-12T14:00:03;2.40;;;0.70;;
23658;SDS011;12006;42.666;23.326;2023-04-12T14:02:29;1.37;;;0.90;;
23658;SDS011;12006;42.666;23.326;2023-04-12T14:04:55;3.87;;;0.97;;
23658;SDS011;12006;42.666;23.326;2023-04-12T14:07:20;1.83;;;0.80;;
23658;SDS011;12006;42.666;23.326;2023-04-12T14:09:46;2.97;;;1.83;;
23658;SDS011;12006;42.666;23.326;2023-04-12T14:12:12;2.10;;;0.90;;
23658;SDS011;12006;42.666;23.326;2023-04-12T14:14:38;0.73;;;0.40;;
23658;SDS011;12006;42.666;23.326;2023-04-12T14:17:04;1.20;;;0.80;;
23658;SDS011;12006;42.666;23.326;2023-04-12T14:19:29;1.17;;;0.47;;
23658;SDS011;12006;42.666;23.326;2023-04-12T14:21:55;1.77;;;0.90;;
23658;SDS011;12006;42.666;23.326;2023-04-12T14:24:20;1.87;;;1.00;;
23658;SDS011;12006;42.666;23.326;2023-04-12T14:26:47;2.30;;;1.10;;
23658;SDS011;12006;42.666;23.326;2023-04-12T14:29:14;1.23;;;0.60;;
23658;SDS011;12006;42.666;23.326;2023-04-12T14:31:40;1.63;;;0.70;;
23658;SDS011;12006;42.666;23.326;2023-04-12T14:34:05;1.33;;;0.50;;
23658;SDS011;12006;42.666;23.326;2023-04-12T14:36:32;0.63;;;0.40;;
23658;SDS011;12006;42.666;23.326;2023-04-12T14:38:58;0.93;;;0.83;;
23658;SDS011;12006;42.666;23.326;2023-04-12T14:41:23;0.80;;;0.80;;
23658;SDS011;12006;42.666;23.326;2023-04-12T14:43:49;0.60;;;0.60;;